createdAt,value
2022-12-29T00:00:44.945Z,78.71
2022-12-29T00:01:44.820Z,78.79
2022-12-29T00:02:45.048Z,78.79
2022-12-29T00:03:44.868Z,78.82
2022-12-29T00:04:44.897Z,78.75
2022-12-29T00:05:44.777Z,78.70
2022-12-29T00:07:54.219Z,78.58
2022-12-29T00:08:54.011Z,78.58
2022-12-29T00:09:54.149Z,79.03
2022-12-29T00:10:53.985Z,79.21
2022-12-29T00:11:54.077Z,79.21
2022-12-29T00:12:53.953Z,79.20
2022-12-29T00:13:54.176Z,79.27
2022-12-29T00:14:53.929Z,79.38
2022-12-29T00:16:15.188Z,79.20
2022-12-29T00:16:53.912Z,79.43
2022-12-29T00:17:53.987Z,79.28
2022-12-29T00:18:53.878Z,79.23
2022-12-29T00:19:53.977Z,79.54
2022-12-29T00:20:53.851Z,79.61
2022-12-29T00:21:53.956Z,79.86
2022-12-29T00:22:53.834Z,80.02
2022-12-29T00:23:55.894Z,79.72
2022-12-29T00:24:53.803Z,79.95
2022-12-29T00:25:53.896Z,80.60
2022-12-29T00:26:53.782Z,80.66
2022-12-29T00:27:53.862Z,80.54
2022-12-29T00:28:53.751Z,80.62
2022-12-29T00:29:54.823Z,80.88
2022-12-29T00:30:53.739Z,81.13
2022-12-29T00:31:53.886Z,81.28
2022-12-29T00:32:53.694Z,81.49
2022-12-29T00:34:14.853Z,81.56
2022-12-29T00:34:53.672Z,81.39
2022-12-29T00:35:53.705Z,81.42
2022-12-29T00:36:53.644Z,81.47
2022-12-29T00:37:53.796Z,81.47
2022-12-29T00:38:53.614Z,81.29
2022-12-29T00:39:53.791Z,80.95
2022-12-29T00:40:53.585Z,80.96
2022-12-29T00:41:53.713Z,81.15
2022-12-29T00:42:53.560Z,81.19
2022-12-29T00:43:53.696Z,81.01
2022-12-29T00:44:53.543Z,81.03
2022-12-29T00:46:19.629Z,80.56
2022-12-29T00:46:53.549Z,80.33
2022-12-29T00:47:53.613Z,80.63
2022-12-29T00:48:53.488Z,80.92
2022-12-29T00:49:53.612Z,80.74
2022-12-29T00:50:53.462Z,80.66
2022-12-29T00:51:53.483Z,80.85
2022-12-29T00:52:53.426Z,81.00
2022-12-29T00:53:53.523Z,81.00
2022-12-29T00:54:53.407Z,81.26
2022-12-29T00:55:53.524Z,81.65
2022-12-29T00:56:53.389Z,81.91
2022-12-29T00:58:14.477Z,81.77
2022-12-29T00:58:53.344Z,81.76
2022-12-29T00:59:53.532Z,81.49
2022-12-29T01:00:53.363Z,81.61
2022-12-29T01:01:57.773Z,81.71
2022-12-29T01:02:53.400Z,81.31
2022-12-29T01:03:54.701Z,80.83
2022-12-29T01:04:53.274Z,80.86
2022-12-29T01:05:53.438Z,80.97
2022-12-29T01:06:53.252Z,80.90
2022-12-29T01:07:54.443Z,81.04
2022-12-29T01:08:53.211Z,81.08
2022-12-29T01:09:53.428Z,81.35
2022-12-29T01:10:53.189Z,81.71
2022-12-29T01:11:53.232Z,81.57
2022-12-29T01:12:53.162Z,81.95
2022-12-29T01:13:56.518Z,82.24
2022-12-29T01:14:53.140Z,82.98
2022-12-29T01:15:53.336Z,82.97
2022-12-29T01:16:53.110Z,82.56
2022-12-29T01:17:53.151Z,82.26
2022-12-29T01:18:53.089Z,82.53
2022-12-29T01:19:53.119Z,82.14
2022-12-29T01:20:53.062Z,82.39
2022-12-29T01:21:53.109Z,82.62
2022-12-29T01:22:53.031Z,82.95
2022-12-29T01:23:53.088Z,83.30
2022-12-29T01:24:53.013Z,82.91
2022-12-29T01:25:53.062Z,83.18
2022-12-29T01:26:52.970Z,83.15
2022-12-29T01:27:53.022Z,82.74
2022-12-29T01:28:52.955Z,82.50
2022-12-29T01:29:53.040Z,82.74
2022-12-29T01:30:52.918Z,83.28
2022-12-29T01:31:56.292Z,83.43
2022-12-29T01:32:52.898Z,83.38
2022-12-29T01:33:52.966Z,83.26
2022-12-29T01:34:52.868Z,83.07
2022-12-29T01:35:52.958Z,83.16
2022-12-29T01:36:52.855Z,83.25
2022-12-29T01:37:52.976Z,82.73
2022-12-29T01:38:52.821Z,82.97
2022-12-29T01:39:52.937Z,83.14
2022-12-29T01:40:52.795Z,83.05
2022-12-29T01:41:52.869Z,82.97
2022-12-29T01:42:52.776Z,83.01
2022-12-29T01:43:52.888Z,82.88
2022-12-29T01:44:52.746Z,82.62
2022-12-29T01:45:52.767Z,82.49
2022-12-29T01:46:52.716Z,82.47
2022-12-29T01:47:52.754Z,82.77
2022-12-29T01:48:52.688Z,82.83
2022-12-29T01:49:52.726Z,82.94
2022-12-29T01:50:52.652Z,83.16
2022-12-29T01:51:52.685Z,83.42
2022-12-29T01:52:52.636Z,83.50
2022-12-29T01:53:52.703Z,83.49
2022-12-29T01:54:52.609Z,83.55
2022-12-29T01:55:52.665Z,83.81
2022-12-29T01:56:52.584Z,84.01
2022-12-29T01:57:52.624Z,83.73
2022-12-29T01:58:52.614Z,84.13
2022-12-29T01:59:52.691Z,84.22
2022-12-29T02:00:52.594Z,84.40
2022-12-29T02:01:55.886Z,84.36
2022-12-29T02:02:52.592Z,84.27
2022-12-29T02:03:52.566Z,84.11
2022-12-29T02:04:52.472Z,84.14
2022-12-29T02:05:52.497Z,84.10
2022-12-29T02:06:52.452Z,84.09
2022-12-29T02:07:52.544Z,84.53
2022-12-29T02:08:52.421Z,84.31
2022-12-29T02:09:52.570Z,83.91
2022-12-29T02:10:52.412Z,83.95
2022-12-29T02:11:52.492Z,83.91
2022-12-29T02:12:52.381Z,83.97
2022-12-29T02:13:52.594Z,84.04
2022-12-29T02:14:52.342Z,84.14
2022-12-29T02:15:52.345Z,84.09
2022-12-29T02:16:52.373Z,84.11
2022-12-29T02:17:52.373Z,83.95
2022-12-29T02:18:52.305Z,84.06
2022-12-29T02:19:52.395Z,84.35
2022-12-29T02:20:52.292Z,84.50
2022-12-29T02:21:52.376Z,84.56
2022-12-29T02:22:52.242Z,84.42
2022-12-29T02:23:52.409Z,84.46
2022-12-29T02:24:52.226Z,84.51
2022-12-29T02:25:52.298Z,84.61
2022-12-29T02:26:52.194Z,84.59
2022-12-29T02:27:52.277Z,84.70
2022-12-29T02:28:52.168Z,85.04
2022-12-29T02:29:52.325Z,84.98
2022-12-29T02:30:52.138Z,84.89
2022-12-29T02:31:52.252Z,84.90
2022-12-29T02:32:52.114Z,84.84
2022-12-29T02:33:52.178Z,84.89
2022-12-29T02:34:52.080Z,85.04
2022-12-29T02:35:54.216Z,84.99
2022-12-29T02:36:52.062Z,84.99
2022-12-29T02:37:52.206Z,84.83
2022-12-29T02:38:52.028Z,84.76
2022-12-29T02:39:52.184Z,84.75
2022-12-29T02:40:52.029Z,84.82
2022-12-29T02:41:52.119Z,85.02
2022-12-29T02:42:51.978Z,84.94
2022-12-29T02:43:54.048Z,84.89
2022-12-29T02:44:51.959Z,84.90
2022-12-29T02:45:52.055Z,84.89
2022-12-29T02:46:51.926Z,84.96
2022-12-29T02:47:54.127Z,85.06
2022-12-29T02:48:51.897Z,85.14
2022-12-29T02:49:52.014Z,85.07
2022-12-29T02:50:51.876Z,84.84
2022-12-29T02:51:51.894Z,85.05
2022-12-29T02:52:51.862Z,85.82
2022-12-29T02:53:51.937Z,85.78
2022-12-29T02:54:51.816Z,85.55
2022-12-29T02:55:51.924Z,85.10
2022-12-29T02:56:51.785Z,85.10
2022-12-29T02:57:51.903Z,85.28
2022-12-29T02:58:51.768Z,85.47
2022-12-29T03:00:12.837Z,85.48
2022-12-29T03:00:51.753Z,85.57
2022-12-29T03:01:52.043Z,85.78
2022-12-29T03:02:51.792Z,85.92
2022-12-29T03:03:51.773Z,85.98
2022-12-29T03:04:51.682Z,86.07
2022-12-29T03:05:51.795Z,85.78
2022-12-29T03:06:51.661Z,85.93
2022-12-29T03:07:51.828Z,86.13
2022-12-29T03:08:51.634Z,85.85
2022-12-29T03:09:51.711Z,86.29
2022-12-29T03:10:51.620Z,86.53
2022-12-29T03:11:51.671Z,85.98
2022-12-29T03:12:51.598Z,86.56
2022-12-29T03:13:51.746Z,86.69
2022-12-29T03:14:51.562Z,86.54
2022-12-29T03:15:51.719Z,86.11
2022-12-29T03:16:51.553Z,86.36
2022-12-29T03:17:51.659Z,86.26
2022-12-29T03:18:51.508Z,85.43
2022-12-29T03:19:51.639Z,85.08
2022-12-29T03:20:51.480Z,84.74
2022-12-29T03:21:52.542Z,85.03
2022-12-29T03:22:51.456Z,85.10
2022-12-29T03:23:51.560Z,85.43
2022-12-29T03:24:51.418Z,85.66
2022-12-29T03:25:51.548Z,85.01
2022-12-29T03:26:51.397Z,85.21
2022-12-29T03:27:51.546Z,85.56
2022-12-29T03:28:51.371Z,85.76
2022-12-29T03:29:51.473Z,85.87
2022-12-29T03:30:51.383Z,85.54
2022-12-29T03:31:51.457Z,84.82
2022-12-29T03:32:51.326Z,85.22
2022-12-29T03:33:51.379Z,85.44
2022-12-29T03:34:51.300Z,85.38
2022-12-29T03:35:51.478Z,85.17
2022-12-29T03:36:51.265Z,85.43
2022-12-29T03:37:51.468Z,85.14
2022-12-29T03:38:51.238Z,84.67
2022-12-29T03:40:13.350Z,84.85
2022-12-29T03:40:51.236Z,85.08
2022-12-29T03:41:51.280Z,85.04
2022-12-29T03:42:51.187Z,85.02
2022-12-29T03:43:51.365Z,84.80
2022-12-29T03:44:51.171Z,84.76
2022-12-29T03:45:51.397Z,84.68
2022-12-29T03:46:51.133Z,84.76
2022-12-29T03:47:51.183Z,84.61
2022-12-29T03:48:51.118Z,84.43
2022-12-29T03:49:51.175Z,84.41
2022-12-29T03:50:51.085Z,84.61
2022-12-29T03:51:52.061Z,84.82
2022-12-29T03:52:51.061Z,84.63
2022-12-29T03:53:51.200Z,84.71
2022-12-29T03:54:51.025Z,84.81
2022-12-29T03:55:51.182Z,84.55
2022-12-29T03:56:51.003Z,84.42
2022-12-29T03:57:53.157Z,84.29
2022-12-29T03:58:50.979Z,84.24
2022-12-29T03:59:51.101Z,84.16
2022-12-29T04:00:50.956Z,84.12
2022-12-29T04:01:51.173Z,84.05
2022-12-29T04:02:51.103Z,83.85
2022-12-29T04:03:52.081Z,83.84
2022-12-29T04:04:50.924Z,83.69
2022-12-29T04:05:51.000Z,83.64
2022-12-29T04:06:50.886Z,83.68
2022-12-29T04:07:50.991Z,83.75
2022-12-29T04:08:50.848Z,83.69
2022-12-29T04:10:12.057Z,83.58
2022-12-29T04:10:50.812Z,83.54
2022-12-29T04:11:50.917Z,83.58
2022-12-29T04:12:50.806Z,83.75
2022-12-29T04:13:50.983Z,83.72
2022-12-29T04:14:50.761Z,83.85
2022-12-29T04:15:51.884Z,84.03
2022-12-29T04:16:50.740Z,84.32
2022-12-29T04:17:50.810Z,84.33
2022-12-29T04:18:50.726Z,84.50
2022-12-29T04:19:50.803Z,84.49
2022-12-29T04:20:50.686Z,84.63
2022-12-29T04:22:11.759Z,84.72
2022-12-29T04:22:50.661Z,84.85
2022-12-29T04:23:50.818Z,84.68
2022-12-29T04:24:50.631Z,84.39
2022-12-29T04:25:50.702Z,84.44
2022-12-29T04:26:50.591Z,84.58
2022-12-29T04:29:00.074Z,84.38
2022-12-29T04:29:59.891Z,84.39
2022-12-29T04:31:00.004Z,84.68
2022-12-29T04:31:59.844Z,84.63
2022-12-29T04:33:00.962Z,84.22
2022-12-29T04:33:59.818Z,84.51
2022-12-29T04:34:59.981Z,84.51
2022-12-29T04:35:59.784Z,84.63
2022-12-29T04:36:59.872Z,84.35
2022-12-29T04:37:59.765Z,84.03
2022-12-29T04:38:59.873Z,84.30
2022-12-29T04:39:59.735Z,84.50
2022-12-29T04:40:59.778Z,84.32
2022-12-29T04:41:59.708Z,84.64
2022-12-29T04:42:59.865Z,84.32
2022-12-29T04:43:59.681Z,84.24
2022-12-29T04:45:00.772Z,84.67
2022-12-29T04:45:59.686Z,85.19
2022-12-29T04:46:59.790Z,85.33
2022-12-29T04:47:59.631Z,85.30
2022-12-29T04:49:01.717Z,85.41
2022-12-29T04:49:59.602Z,85.38
2022-12-29T04:50:59.654Z,85.10
2022-12-29T04:51:59.581Z,84.98
2022-12-29T04:52:59.691Z,84.77
2022-12-29T04:53:59.550Z,84.53
2022-12-29T04:55:00.713Z,84.73
2022-12-29T04:55:59.533Z,84.66
2022-12-29T04:56:59.661Z,84.65
2022-12-29T04:57:59.511Z,84.78
2022-12-29T04:58:59.598Z,85.31
2022-12-29T04:59:59.469Z,85.56
2022-12-29T05:01:01.632Z,85.33
2022-12-29T05:01:59.481Z,85.34
2022-12-29T05:02:59.721Z,85.84
2022-12-29T05:03:59.469Z,86.06
2022-12-29T05:04:59.511Z,85.63
2022-12-29T05:05:59.389Z,85.49
2022-12-29T05:06:59.489Z,85.50
2022-12-29T05:07:59.359Z,86.06
2022-12-29T05:08:59.478Z,85.96
2022-12-29T05:09:59.337Z,85.57
2022-12-29T05:10:59.409Z,85.62
2022-12-29T05:11:59.321Z,85.44
2022-12-29T05:13:00.424Z,85.52
2022-12-29T05:13:59.280Z,85.84
2022-12-29T05:14:59.493Z,85.78
2022-12-29T05:15:59.304Z,86.12
2022-12-29T05:16:59.308Z,86.22
2022-12-29T05:17:59.228Z,85.97
2022-12-29T05:18:59.312Z,85.93
2022-12-29T05:19:59.206Z,85.90
2022-12-29T05:20:59.289Z,85.89
2022-12-29T05:21:59.179Z,85.94
2022-12-29T05:22:59.332Z,86.10
2022-12-29T05:23:59.156Z,86.57
2022-12-29T05:24:59.204Z,86.64
2022-12-29T05:25:59.124Z,86.92
2022-12-29T05:26:59.183Z,87.25
2022-12-29T05:27:59.095Z,87.05
2022-12-29T05:28:59.249Z,87.13
2022-12-29T05:29:59.073Z,87.16
2022-12-29T05:30:59.256Z,86.96
2022-12-29T05:31:59.050Z,86.62
2022-12-29T05:32:59.203Z,86.54
2022-12-29T05:33:59.017Z,86.38
2022-12-29T05:34:59.134Z,86.22
2022-12-29T05:35:58.996Z,86.26
2022-12-29T05:36:59.115Z,86.40
2022-12-29T05:37:58.971Z,86.54
2022-12-29T05:38:59.111Z,86.62
2022-12-29T05:39:58.933Z,86.69
2022-12-29T05:40:59.042Z,86.67
2022-12-29T05:41:58.914Z,86.92
2022-12-29T05:42:59.141Z,86.75
2022-12-29T05:43:58.892Z,86.75
2022-12-29T05:44:59.005Z,86.81
2022-12-29T05:45:58.863Z,87.08
2022-12-29T05:48:08.836Z,86.20
2022-12-29T05:49:08.625Z,86.20
2022-12-29T05:50:08.675Z,86.52
2022-12-29T05:51:08.604Z,86.58
2022-12-29T05:52:29.691Z,86.52
2022-12-29T05:53:08.587Z,86.12
2022-12-29T05:54:08.698Z,86.18
2022-12-29T05:55:08.547Z,86.30
2022-12-29T05:56:08.682Z,86.40
2022-12-29T05:57:08.548Z,86.51
2022-12-29T05:58:08.620Z,86.83
2022-12-29T05:59:08.497Z,87.07
2022-12-29T06:00:08.612Z,86.94
2022-12-29T06:01:08.490Z,87.10
2022-12-29T06:02:08.698Z,86.95
2022-12-29T06:03:08.686Z,86.70
2022-12-29T06:04:08.602Z,86.45
2022-12-29T06:05:08.423Z,86.26
2022-12-29T06:06:08.523Z,86.21
2022-12-29T06:07:08.391Z,86.20
2022-12-29T06:08:08.461Z,86.36
2022-12-29T06:09:08.373Z,86.23
2022-12-29T06:10:08.424Z,86.16
2022-12-29T06:11:08.351Z,86.09
2022-12-29T06:12:08.513Z,86.22
2022-12-29T06:13:08.333Z,86.34
2022-12-29T06:14:08.492Z,86.25
2022-12-29T06:15:08.281Z,86.58
2022-12-29T06:16:09.544Z,86.52
2022-12-29T06:17:08.273Z,86.09
2022-12-29T06:18:08.312Z,86.33
2022-12-29T06:19:08.241Z,86.22
2022-12-29T06:20:29.275Z,86.26
2022-12-29T06:21:08.208Z,86.66
2022-12-29T06:22:08.343Z,86.63
2022-12-29T06:23:08.178Z,86.37
2022-12-29T06:24:08.325Z,86.46
2022-12-29T06:25:08.158Z,86.19
2022-12-29T06:26:08.197Z,86.01
2022-12-29T06:27:08.128Z,85.89
2022-12-29T06:28:08.250Z,86.22
2022-12-29T06:29:08.132Z,86.32
2022-12-29T06:30:08.237Z,86.42
2022-12-29T06:31:08.080Z,86.40
2022-12-29T06:33:17.614Z,85.88
2022-12-29T06:34:17.378Z,85.89
2022-12-29T06:35:17.476Z,86.10
2022-12-29T06:36:17.409Z,85.96
2022-12-29T06:37:20.378Z,86.12
2022-12-29T06:38:17.374Z,86.07
2022-12-29T06:39:17.547Z,86.05
2022-12-29T06:40:17.309Z,85.94
2022-12-29T06:41:17.389Z,85.94
2022-12-29T06:42:17.302Z,85.88
2022-12-29T06:44:26.858Z,85.69
2022-12-29T06:45:26.665Z,85.70
2022-12-29T06:46:26.849Z,85.84
2022-12-29T06:47:26.616Z,85.61
2022-12-29T06:48:26.725Z,85.44
2022-12-29T06:49:26.597Z,85.71
2022-12-29T06:50:26.759Z,85.75
2022-12-29T06:51:26.568Z,85.84
2022-12-29T06:52:26.735Z,85.78
2022-12-29T06:53:26.532Z,85.78
2022-12-29T06:54:26.724Z,85.86
2022-12-29T06:55:26.502Z,85.85
2022-12-29T06:56:26.561Z,85.88
2022-12-29T06:57:26.481Z,86.01
2022-12-29T06:58:26.652Z,86.14
2022-12-29T06:59:26.456Z,86.17
2022-12-29T07:00:26.637Z,86.27
2022-12-29T07:01:26.493Z,86.31
2022-12-29T07:02:26.777Z,86.23
2022-12-29T07:03:26.443Z,86.04
2022-12-29T07:04:26.459Z,86.06
2022-12-29T07:05:26.385Z,86.17
2022-12-29T07:06:26.439Z,86.16
2022-12-29T07:07:26.362Z,86.04
2022-12-29T07:08:27.497Z,86.14
2022-12-29T07:09:26.335Z,86.24
2022-12-29T07:10:26.463Z,86.18
2022-12-29T07:11:26.303Z,86.12
2022-12-29T07:12:28.545Z,85.99
2022-12-29T07:13:26.274Z,85.90
2022-12-29T07:14:26.376Z,85.92
2022-12-29T07:15:26.249Z,85.75
2022-12-29T07:16:27.487Z,85.85
2022-12-29T07:17:26.242Z,86.01
2022-12-29T07:18:26.345Z,85.99
2022-12-29T07:19:26.189Z,85.90
2022-12-29T07:20:27.175Z,85.88
2022-12-29T07:21:26.172Z,85.93
2022-12-29T07:22:28.322Z,85.96
2022-12-29T07:23:26.142Z,85.81
2022-12-29T07:24:28.246Z,85.64
2022-12-29T07:25:26.126Z,85.80
2022-12-29T07:26:28.270Z,85.87
2022-12-29T07:27:26.101Z,85.74
2022-12-29T07:28:26.274Z,85.66
2022-12-29T07:29:26.073Z,85.64
2022-12-29T07:30:27.182Z,85.35
2022-12-29T07:31:26.088Z,85.61
2022-12-29T07:32:26.103Z,85.83
2022-12-29T07:33:26.019Z,85.96
2022-12-29T07:34:26.181Z,85.94
2022-12-29T07:35:26.000Z,85.84
2022-12-29T07:36:29.401Z,85.80
2022-12-29T07:37:26.965Z,85.72
2022-12-29T07:38:26.101Z,85.54
2022-12-29T07:39:25.946Z,85.80
2022-12-29T07:40:26.094Z,85.72
2022-12-29T07:41:25.909Z,85.81
2022-12-29T07:42:25.970Z,85.94
2022-12-29T07:43:25.891Z,85.82
2022-12-29T07:44:26.004Z,85.60
2022-12-29T07:45:25.872Z,85.62
2022-12-29T07:46:56.196Z,85.64
2022-12-29T07:47:26.927Z,85.65
2022-12-29T07:48:25.843Z,85.80
2022-12-29T07:49:25.958Z,85.59
2022-12-29T07:50:25.797Z,85.64
2022-12-29T07:51:25.877Z,85.49
2022-12-29T07:52:25.807Z,85.36
2022-12-29T07:53:46.892Z,85.45
2022-12-29T07:54:25.749Z,85.39
2022-12-29T07:55:25.864Z,85.43
2022-12-29T07:56:25.720Z,85.54
2022-12-29T07:57:31.713Z,85.58
2022-12-29T07:58:26.715Z,85.51
2022-12-29T07:59:25.829Z,85.60
2022-12-29T08:00:25.687Z,85.70
2022-12-29T08:01:25.910Z,85.57
2022-12-29T08:02:25.839Z,85.45
2022-12-29T08:03:25.820Z,85.44
2022-12-29T08:04:25.636Z,85.57
2022-12-29T08:05:25.722Z,85.66
2022-12-29T08:06:25.594Z,85.63
2022-12-29T08:07:25.655Z,85.75
2022-12-29T08:08:25.570Z,85.67
2022-12-29T08:09:25.695Z,85.60
2022-12-29T08:10:25.552Z,85.58
2022-12-29T08:11:25.631Z,85.12
2022-12-29T08:12:25.508Z,85.32
2022-12-29T08:13:25.563Z,85.32
2022-12-29T08:14:25.493Z,85.48
2022-12-29T08:15:46.589Z,85.44
2022-12-29T08:16:25.499Z,85.27
2022-12-29T08:17:25.542Z,85.38
2022-12-29T08:18:25.432Z,85.45
2022-12-29T08:19:25.572Z,85.40
2022-12-29T08:20:25.441Z,85.53
2022-12-29T08:21:28.864Z,85.56
2022-12-29T08:22:25.381Z,85.54
2022-12-29T08:23:25.443Z,85.45
2022-12-29T08:24:25.352Z,85.42
2022-12-29T08:25:25.482Z,85.17
2022-12-29T08:26:25.324Z,85.26
2022-12-29T08:27:25.469Z,85.13
2022-12-29T08:28:25.306Z,85.17
2022-12-29T08:29:25.455Z,85.37
2022-12-29T08:30:25.373Z,85.49
2022-12-29T08:31:25.531Z,85.43
2022-12-29T08:32:25.253Z,85.39
2022-12-29T08:33:25.370Z,85.52
2022-12-29T08:34:25.230Z,85.64
2022-12-29T08:35:25.352Z,85.36
2022-12-29T08:36:25.209Z,84.78
2022-12-29T08:37:30.852Z,84.85
2022-12-29T08:38:26.192Z,84.93
2022-12-29T08:39:25.334Z,84.91
2022-12-29T08:40:25.155Z,84.85
2022-12-29T08:41:25.259Z,84.65
2022-12-29T08:42:25.126Z,84.62
2022-12-29T08:43:27.292Z,84.62
2022-12-29T08:44:25.121Z,84.70
2022-12-29T08:45:25.233Z,84.87
2022-12-29T08:46:25.114Z,85.05
2022-12-29T08:47:25.160Z,84.71
2022-12-29T08:48:25.041Z,84.42
2022-12-29T08:49:25.206Z,84.13
2022-12-29T08:50:25.056Z,84.37
2022-12-29T08:51:25.439Z,84.41
2022-12-29T08:52:24.996Z,84.50
2022-12-29T08:53:25.069Z,84.58
2022-12-29T08:54:24.970Z,84.68
2022-12-29T08:55:46.042Z,84.53
2022-12-29T08:56:24.934Z,84.64
2022-12-29T08:57:25.036Z,84.94
2022-12-29T08:58:24.918Z,84.92
2022-12-29T08:59:24.981Z,84.69
2022-12-29T09:00:24.888Z,84.53
2022-12-29T09:01:25.019Z,84.86
2022-12-29T09:02:25.147Z,84.43
2022-12-29T09:03:54.624Z,83.89
2022-12-29T09:04:26.103Z,84.13
2022-12-29T09:05:24.825Z,84.01
2022-12-29T09:06:45.887Z,84.10
2022-12-29T09:07:24.796Z,84.12
2022-12-29T09:08:26.216Z,84.35
2022-12-29T09:09:24.777Z,84.16
2022-12-29T09:10:24.916Z,83.71
2022-12-29T09:11:24.741Z,83.57
2022-12-29T09:12:24.905Z,83.86
2022-12-29T09:13:24.717Z,84.02
2022-12-29T09:14:24.788Z,83.70
2022-12-29T09:15:24.689Z,83.72
2022-12-29T09:16:45.805Z,83.83
2022-12-29T09:17:24.665Z,83.78
2022-12-29T09:18:27.982Z,83.80
2022-12-29T09:19:24.635Z,83.91
2022-12-29T09:20:24.797Z,84.10
2022-12-29T09:21:24.612Z,84.40
2022-12-29T09:22:24.615Z,84.13
2022-12-29T09:23:24.585Z,84.30
2022-12-29T09:24:24.684Z,84.49
2022-12-29T09:25:24.556Z,84.22
2022-12-29T09:26:24.650Z,84.02
2022-12-29T09:27:24.536Z,84.30
2022-12-29T09:28:24.563Z,84.49
2022-12-29T09:29:24.513Z,84.77
2022-12-29T09:30:24.730Z,84.45
2022-12-29T09:31:24.495Z,84.75
2022-12-29T09:32:27.495Z,84.58
2022-12-29T09:33:25.455Z,84.43
2022-12-29T09:34:24.543Z,84.26
2022-12-29T09:35:24.434Z,84.18
2022-12-29T09:36:24.523Z,84.39
2022-12-29T09:37:24.412Z,84.39
2022-12-29T09:38:24.513Z,84.14
2022-12-29T09:39:24.373Z,84.29
2022-12-29T09:40:24.556Z,84.62
2022-12-29T09:41:24.353Z,84.72
2022-12-29T09:42:24.435Z,83.98
2022-12-29T09:43:24.367Z,83.98
2022-12-29T09:44:24.428Z,84.15
2022-12-29T09:45:24.301Z,84.40
2022-12-29T09:46:24.495Z,84.22
2022-12-29T09:47:24.285Z,84.46
2022-12-29T09:48:24.457Z,84.43
2022-12-29T09:49:24.251Z,84.23
2022-12-29T09:50:24.322Z,84.26
2022-12-29T09:51:24.221Z,84.35
2022-12-29T09:53:33.742Z,83.82
2022-12-29T09:54:33.532Z,83.82
2022-12-29T09:55:33.577Z,83.75
2022-12-29T09:56:33.512Z,83.89
2022-12-29T09:57:34.632Z,83.77
2022-12-29T09:58:33.481Z,83.57
2022-12-29T09:59:33.591Z,83.46
2022-12-29T10:00:33.467Z,83.51
2022-12-29T10:01:33.684Z,83.57
2022-12-29T10:02:33.485Z,83.64
2022-12-29T10:03:33.646Z,83.82
2022-12-29T10:04:33.401Z,83.31
2022-12-29T10:05:33.484Z,83.25
2022-12-29T10:06:33.378Z,83.37
2022-12-29T10:07:33.438Z,83.00
2022-12-29T10:08:33.342Z,83.33
2022-12-29T10:09:33.361Z,83.22
2022-12-29T10:10:33.330Z,82.86
2022-12-29T10:11:33.441Z,83.12
2022-12-29T10:12:33.291Z,82.88
2022-12-29T10:13:33.389Z,83.03
2022-12-29T10:14:33.270Z,83.24
2022-12-29T10:15:33.331Z,83.65
2022-12-29T10:16:33.289Z,83.25
2022-12-29T10:17:33.309Z,83.16
2022-12-29T10:18:33.244Z,83.24
2022-12-29T10:19:33.623Z,83.14
2022-12-29T10:20:33.188Z,83.20
2022-12-29T10:21:33.329Z,83.11
2022-12-29T10:22:33.159Z,82.79
2022-12-29T10:23:33.218Z,82.70
2022-12-29T10:24:33.138Z,82.74
2022-12-29T10:25:33.391Z,83.01
2022-12-29T10:26:33.115Z,82.96
2022-12-29T10:27:34.268Z,82.97
2022-12-29T10:28:33.080Z,82.79
2022-12-29T10:29:33.227Z,82.56
2022-12-29T10:30:33.056Z,82.65
2022-12-29T10:31:33.273Z,82.57
2022-12-29T10:32:33.065Z,82.41
2022-12-29T10:33:34.058Z,82.77
2022-12-29T10:34:33.007Z,82.72
2022-12-29T10:35:34.160Z,82.42
2022-12-29T10:36:32.977Z,82.76
2022-12-29T10:37:34.244Z,82.92
2022-12-29T10:38:32.947Z,82.75
2022-12-29T10:39:33.047Z,82.80
2022-12-29T10:40:32.933Z,82.79
2022-12-29T10:41:33.036Z,83.19
2022-12-29T10:42:32.914Z,82.90
2022-12-29T10:43:33.018Z,82.68
2022-12-29T10:44:32.870Z,82.88
2022-12-29T10:45:33.019Z,82.94
2022-12-29T10:46:32.846Z,82.93
2022-12-29T10:47:32.946Z,82.69
2022-12-29T10:48:32.822Z,82.46
2022-12-29T10:49:32.925Z,82.52
2022-12-29T10:50:32.797Z,82.40
2022-12-29T10:51:32.856Z,82.56
2022-12-29T10:52:32.766Z,82.51
2022-12-29T10:53:32.844Z,82.75
2022-12-29T10:54:32.745Z,82.55
2022-12-29T10:55:32.842Z,82.39
2022-12-29T10:56:32.722Z,82.16
2022-12-29T10:57:33.906Z,81.90
2022-12-29T10:58:32.695Z,81.96
2022-12-29T10:59:32.863Z,82.50
2022-12-29T11:00:32.665Z,82.62
2022-12-29T11:01:32.828Z,82.08
2022-12-29T11:02:32.752Z,82.30
2022-12-29T11:03:32.914Z,82.65
2022-12-29T11:04:32.612Z,82.58
2022-12-29T11:05:32.758Z,82.61
2022-12-29T11:06:32.584Z,82.96
2022-12-29T11:07:32.751Z,82.90
2022-12-29T11:08:32.561Z,82.64
2022-12-29T11:09:47.928Z,82.15
2022-12-29T11:10:33.649Z,82.09
2022-12-29T11:11:32.524Z,81.76
2022-12-29T11:12:32.691Z,81.31
2022-12-29T11:13:38.573Z,81.19
2022-12-29T11:14:33.483Z,81.36
2022-12-29T11:15:32.585Z,81.53
2022-12-29T11:16:32.511Z,81.36
2022-12-29T11:17:32.623Z,81.54
2022-12-29T11:18:32.427Z,82.07
2022-12-29T11:19:36.227Z,82.15
2022-12-29T11:20:33.400Z,82.00
2022-12-29T11:21:32.484Z,82.52
2022-12-29T11:22:32.392Z,82.44
2022-12-29T11:23:32.521Z,82.02
2022-12-29T11:24:32.348Z,81.99
2022-12-29T11:25:34.558Z,82.18
2022-12-29T11:26:34.691Z,82.32
2022-12-29T11:27:32.492Z,82.46
2022-12-29T11:28:32.314Z,81.68
2022-12-29T11:29:32.321Z,81.53
2022-12-29T11:30:32.282Z,81.32
2022-12-29T11:32:41.747Z,80.74
2022-12-29T11:33:41.567Z,80.72
2022-12-29T11:34:41.577Z,81.09
2022-12-29T11:35:41.525Z,81.00
2022-12-29T11:37:02.595Z,81.16
2022-12-29T11:37:41.513Z,81.46
2022-12-29T11:38:41.645Z,81.31
2022-12-29T11:39:41.479Z,81.58
2022-12-29T11:40:41.586Z,81.00
2022-12-29T11:41:41.440Z,81.00
2022-12-29T11:42:41.523Z,81.11
2022-12-29T11:43:41.406Z,81.21
2022-12-29T11:44:41.453Z,81.04
2022-12-29T11:45:41.472Z,81.12
2022-12-29T11:46:41.494Z,81.00
2022-12-29T11:47:41.353Z,80.79
2022-12-29T11:49:02.533Z,80.73
2022-12-29T11:49:41.322Z,80.75
2022-12-29T11:50:41.464Z,80.87
2022-12-29T11:51:41.322Z,81.21
2022-12-29T11:52:41.395Z,81.57
2022-12-29T11:53:41.282Z,81.47
2022-12-29T11:54:41.340Z,81.14
2022-12-29T11:55:41.252Z,81.09
2022-12-29T11:56:41.706Z,81.35
2022-12-29T11:57:41.241Z,81.20
2022-12-29T11:58:41.427Z,81.21
2022-12-29T11:59:41.201Z,81.41
2022-12-29T12:00:41.380Z,81.62
2022-12-29T12:01:41.194Z,81.93
2022-12-29T12:02:43.291Z,81.85
2022-12-29T12:03:41.239Z,81.68
2022-12-29T12:04:41.214Z,81.58
2022-12-29T12:05:41.124Z,81.40
2022-12-29T12:06:41.243Z,81.26
2022-12-29T12:07:41.091Z,81.64
2022-12-29T12:08:41.284Z,81.46
2022-12-29T12:09:41.089Z,81.44
2022-12-29T12:10:43.202Z,81.49
2022-12-29T12:11:41.040Z,81.39
2022-12-29T12:12:41.148Z,81.56
2022-12-29T12:13:41.016Z,81.35
2022-12-29T12:14:41.091Z,81.46
2022-12-29T12:15:46.021Z,81.56
2022-12-29T12:16:42.042Z,81.56
2022-12-29T12:17:41.080Z,81.62
2022-12-29T12:18:40.956Z,81.13
2022-12-29T12:19:41.027Z,81.36
2022-12-29T12:20:40.912Z,81.33
2022-12-29T12:21:45.510Z,81.01
2022-12-29T12:22:40.889Z,81.08
2022-12-29T12:23:42.022Z,81.34
2022-12-29T12:24:40.861Z,81.57
2022-12-29T12:25:40.919Z,81.54
2022-12-29T12:26:40.838Z,81.43
2022-12-29T12:27:42.960Z,81.03
2022-12-29T12:28:40.827Z,80.26
2022-12-29T12:29:40.900Z,80.74
2022-12-29T12:30:40.814Z,81.03
2022-12-29T12:31:40.941Z,80.86
2022-12-29T12:32:40.771Z,80.71
2022-12-29T12:33:40.817Z,80.61
2022-12-29T12:34:40.729Z,80.37
2022-12-29T12:35:40.807Z,79.90
2022-12-29T12:36:40.711Z,80.07
2022-12-29T12:37:40.837Z,79.84
2022-12-29T12:38:40.679Z,79.73
2022-12-29T12:39:42.886Z,79.92
2022-12-29T12:40:40.661Z,79.82
2022-12-29T12:41:40.813Z,80.32
2022-12-29T12:42:40.645Z,80.47
2022-12-29T12:43:40.747Z,80.28
2022-12-29T12:44:40.604Z,80.30
2022-12-29T12:45:43.922Z,80.24
2022-12-29T12:46:40.644Z,80.18
2022-12-29T12:47:40.714Z,80.37
2022-12-29T12:48:40.556Z,80.24
2022-12-29T12:49:40.649Z,80.39
2022-12-29T12:50:40.517Z,80.24
2022-12-29T12:51:40.636Z,80.17
2022-12-29T12:52:40.487Z,80.20
2022-12-29T12:53:40.648Z,80.28
2022-12-29T12:54:40.469Z,80.32
2022-12-29T12:55:40.559Z,80.13
2022-12-29T12:56:40.456Z,80.03
2022-12-29T12:57:40.536Z,79.93
2022-12-29T12:58:40.425Z,80.26
2022-12-29T12:59:40.540Z,80.11
2022-12-29T13:00:40.394Z,80.16